Time;durP1;ratioP1;P1;durP2;ratioP2;P2;SDS_P1;SDS_P2;PMS_P1;PMS_P2;Temp;Humidity;BMP_temperature;BMP_pressure;BME280_temperature;BME280_humidity;BME280_pressure;Samples;Min_cycle;Max_cycle;Signal;HPM_P1;HPM_P2
2024/03/23 00:00:52;;;;;;;10.23;9.60;;;14.90;15.20;;;;;;4900050;29;20456;-81
2024/03/23 00:03:22;;;;;;;8.93;8.33;;;14.90;15.20;;;;;;4899467;29;20422;-80
2024/03/23 00:05:49;;;;;;;9.30;8.60;;;14.90;15.20;;;;;;4884165;29;20426;-81
2024/03/23 00:08:15;;;;;;;10.30;9.60;;;14.90;15.20;;;;;;4918332;29;20793;-81
2024/03/23 00:10:47;;;;;;;9.50;8.80;;;14.90;15.10;;;;;;4900716;29;20468;-80
2024/03/23 00:13:17;;;;;;;10.77;9.73;;;14.90;15.10;;;;;;4905135;29;20506;-80
2024/03/23 00:15:51;;;;;;;9.93;9.23;;;14.80;15.20;;;;;;4920016;29;20424;-80
2024/03/23 00:18:23;;;;;;;10.80;10.10;;;14.80;15.30;;;;;;4923934;29;20765;-80
2024/03/23 00:20:55;;;;;;;9.67;8.90;;;14.80;15.10;;;;;;4900613;29;20441;-80
2024/03/23 00:23:22;;;;;;;9.93;9.23;;;14.70;15.00;;;;;;4898591;29;20460;-81
2024/03/23 00:25:57;;;;;;;10.53;9.90;;;14.70;15.00;;;;;;4915349;29;20451;-81
2024/03/23 00:28:24;;;;;;;10.30;9.60;;;14.70;15.10;;;;;;4882351;29;20902;-80
2024/03/23 00:30:50;;;;;;;9.73;9.00;;;14.70;15.20;;;;;;4932770;29;20440;-80
2024/03/23 00:33:17;;;;;;;9.47;8.73;;;14.70;15.30;;;;;;4931334;29;20513;-81
2024/03/23 00:35:43;;;;;;;9.10;8.50;;;14.70;15.20;;;;;;4882411;29;20437;-81
2024/03/23 00:38:10;;;;;;;9.10;8.43;;;14.70;15.40;;;;;;4915922;29;20941;-81
2024/03/23 00:40:39;;;;;;;10.53;8.90;;;14.70;15.20;;;;;;4900972;29;20502;-80
2024/03/23 00:43:06;;;;;;;9.30;8.57;;;14.70;15.40;;;;;;4939252;29;20441;-80
2024/03/23 00:45:58;;;;;;;10.00;9.37;;;14.70;15.50;;;;;;4923837;29;20471;-80
2024/03/23 00:48:25;;;;;;;9.90;9.13;;;14.70;15.50;;;;;;4920415;29;20438;-82
2024/03/23 00:50:57;;;;;;;10.50;9.70;;;14.70;15.60;;;;;;4919589;29;20863;-80
2024/03/23 00:53:22;;;;;;;9.63;9.13;;;14.70;15.50;;;;;;4910773;29;20977;-80
2024/03/23 00:55:52;;;;;;;9.77;9.27;;;14.60;15.60;;;;;;4920513;29;20428;-80
2024/03/23 00:58:20;;;;;;;9.60;8.73;;;14.60;15.70;;;;;;4941406;29;20186;-80
2024/03/23 01:00:46;;;;;;;9.10;8.20;;;14.60;15.70;;;;;;4925534;29;20448;-80
2024/03/23 01:03:21;;;;;;;8.53;8.03;;;14.60;15.50;;;;;;4897426;29;20483;-80
2024/03/23 01:05:48;;;;;;;8.47;7.97;;;14.60;15.70;;;;;;4901071;29;20191;-81
2024/03/23 01:08:14;;;;;;;7.70;7.10;;;14.60;15.60;;;;;;4919708;29;20427;-80
2024/03/23 01:10:42;;;;;;;7.70;7.00;;;14.60;15.90;;;;;;4925250;29;20480;-80
2024/03/23 01:13:14;;;;;;;6.03;5.67;;;14.40;15.20;;;;;;4926866;29;20219;-80
2024/03/23 01:15:47;;;;;;;7.13;6.73;;;14.30;15.30;;;;;;4918589;29;20421;-79
2024/03/23 01:18:15;;;;;;;8.00;7.53;;;14.10;15.90;;;;;;4910063;29;20452;-79
2024/03/23 01:20:40;;;;;;;6.70;6.20;;;13.90;16.20;;;;;;4927175;29;20444;-80
2024/03/23 01:23:06;;;;;;;7.63;7.03;;;13.80;16.20;;;;;;4911067;29;20433;-80
2024/03/23 01:25:31;;;;;;;7.47;6.87;;;13.90;16.40;;;;;;4927594;29;20192;-80
2024/03/23 01:27:57;;;;;;;7.27;6.77;;;13.90;16.50;;;;;;4927535;29;20711;-80
2024/03/23 01:30:23;;;;;;;7.00;6.60;;;13.90;16.40;;;;;;4911001;29;20196;-80
2024/03/23 01:32:50;;;;;;;7.70;7.30;;;14.00;16.40;;;;;;4908076;29;20221;-80
2024/03/23 01:35:16;;;;;;;6.90;6.50;;;14.00;16.20;;;;;;4890205;29;20185;-81
2024/03/23 01:37:41;;;;;;;6.97;6.60;;;14.00;16.30;;;;;;4906423;29;20444;-80
2024/03/23 01:40:07;;;;;;;9.23;8.73;;;14.00;16.20;;;;;;4927258;29;20201;-80
2024/03/23 01:42:33;;;;;;;7.50;7.13;;;14.00;16.40;;;;;;4927237;29;20177;-81
2024/03/23 01:44:58;;;;;;;7.07;6.63;;;14.00;16.30;;;;;;4925925;29;20528;-80
2024/03/23 01:47:54;;;;;;;6.53;6.30;;;14.10;16.50;;;;;;4931084;29;20192;-80
2024/03/23 01:50:21;;;;;;;6.93;6.63;;;14.00;16.50;;;;;;4946332;29;20223;-80
2024/03/23 01:52:47;;;;;;;7.20;6.90;;;14.00;16.60;;;;;;4946520;29;20830;-80
2024/03/23 01:55:19;;;;;;;6.60;6.30;;;14.00;16.70;;;;;;4928517;29;20416;-80
2024/03/23 01:57:44;;;;;;;7.40;7.00;;;14.00;16.80;;;;;;4946031;29;20428;-80
2024/03/23 02:00:12;;;;;;;7.23;6.83;;;14.00;16.80;;;;;;4928455;29;20467;-80
2024/03/23 02:02:46;;;;;;;6.80;6.50;;;14.00;17.00;;;;;;4946356;29;20180;-80
2024/03/23 02:05:12;;;;;;;7.60;7.00;;;13.90;17.10;;;;;;4945090;29;20824;-80
2024/03/23 02:07:42;;;;;;;7.20;6.70;;;13.90;17.40;;;;;;4921885;29;20435;-81
2024/03/23 02:10:14;;;;;;;6.73;6.33;;;13.90;17.50;;;;;;4909605;29;20477;-80
2024/03/23 02:12:40;;;;;;;7.67;7.20;;;13.90;17.60;;;;;;4924518;29;20547;-81
2024/03/23 02:15:06;;;;;;;8.00;7.50;;;13.90;17.60;;;;;;4907554;29;20429;-81
2024/03/23 02:17:33;;;;;;;7.80;7.40;;;13.90;17.60;;;;;;4925531;29;20220;-81
2024/03/23 02:20:02;;;;;;;7.53;7.10;;;13.90;17.60;;;;;;4941531;29;20243;-80
2024/03/23 02:22:38;;;;;;;7.33;7.00;;;13.90;17.60;;;;;;4914459;29;20532;-81
2024/03/23 02:25:07;;;;;;;7.60;7.00;;;13.80;17.50;;;;;;4941874;29;21030;-80
2024/03/23 02:27:34;;;;;;;7.80;7.30;;;13.80;18.00;;;;;;4939287;29;20425;-81
2024/03/23 02:30:00;;;;;;;7.73;7.13;;;13.70;18.10;;;;;;4926782;29;20437;-81
2024/03/23 02:32:25;;;;;;;7.90;7.40;;;13.70;18.30;;;;;;4943673;29;20473;-80
2024/03/23 02:34:51;;;;;;;7.13;6.60;;;13.60;18.40;;;;;;4911052;29;20207;-80
2024/03/23 02:37:16;;;;;;;8.17;7.70;;;13.70;18.70;;;;;;4921082;29;20184;-80
2024/03/23 02:39:42;;;;;;;7.50;7.10;;;13.60;18.80;;;;;;4945150;29;20282;-81
2024/03/23 02:42:07;;;;;;;7.80;7.30;;;13.60;18.90;;;;;;4925597;29;20219;-81
2024/03/23 02:44:33;;;;;;;7.80;7.47;;;13.60;19.10;;;;;;4914285;29;20181;-81
2024/03/23 02:46:58;;;;;;;7.03;6.73;;;13.60;19.20;;;;;;4916612;29;20195;-81
2024/03/23 02:49:34;;;;;;;7.43;7.03;;;13.60;19.40;;;;;;4944346;29;20264;-81
2024/03/23 02:51:59;;;;;;;7.40;7.10;;;13.60;19.50;;;;;;4927481;29;20214;-81
2024/03/23 02:54:27;;;;;;;6.80;6.50;;;13.60;19.50;;;;;;4926946;29;20424;-81
2024/03/23 02:56:53;;;;;;;7.47;6.77;;;13.60;19.60;;;;;;4927381;29;20184;-81
2024/03/23 02:59:18;;;;;;;7.20;6.80;;;13.60;19.60;;;;;;4944230;29;20523;-81
2024/03/23 03:01:53;;;;;;;7.70;7.20;;;13.60;19.70;;;;;;4920569;29;20261;-81
2024/03/23 03:04:24;;;;;;;7.67;7.27;;;13.60;19.80;;;;;;4925180;29;20184;-80
2024/03/23 03:06:49;;;;;;;8.30;7.80;;;13.70;19.70;;;;;;4933032;29;20435;-80
2024/03/23 03:09:15;;;;;;;7.90;7.60;;;13.60;19.80;;;;;;4927740;29;20448;-80
2024/03/23 03:11:45;;;;;;;7.37;7.07;;;13.70;19.90;;;;;;4915309;29;20212;-81
2024/03/23 03:14:11;;;;;;;8.00;7.50;;;13.70;19.90;;;;;;4925791;29;20194;-80
2024/03/23 03:16:36;;;;;;;7.90;7.40;;;13.70;20.00;;;;;;4909325;29;20527;-80
2024/03/23 03:19:02;;;;;;;8.00;7.20;;;13.70;19.90;;;;;;4942027;29;20210;-80
2024/03/23 03:21:28;;;;;;;8.03;7.63;;;13.70;20.00;;;;;;4944932;29;20172;-81
2024/03/23 03:23:54;;;;;;;7.73;7.33;;;13.70;20.00;;;;;;4918917;29;20211;-82
2024/03/23 03:26:19;;;;;;;8.23;7.83;;;13.60;20.30;;;;;;4925735;29;20414;-81
2024/03/23 03:28:48;;;;;;;7.43;7.03;;;13.60;20.20;;;;;;4922997;29;20443;-81
2024/03/23 03:31:18;;;;;;;7.80;7.50;;;13.60;20.30;;;;;;4909279;29;20177;-81
2024/03/23 03:33:43;;;;;;;7.90;7.47;;;13.60;20.40;;;;;;4923704;29;20459;-82
2024/03/23 03:36:09;;;;;;;7.73;7.40;;;13.60;20.40;;;;;;4918057;29;20421;-81
2024/03/23 03:38:35;;;;;;;7.60;7.30;;;13.60;20.30;;;;;;4925587;29;20181;-81
2024/03/23 03:41:01;;;;;;;8.00;7.60;;;13.50;20.40;;;;;;4908831;29;20185;-81
2024/03/23 03:43:27;;;;;;;7.73;7.43;;;13.60;20.60;;;;;;4926200;29;20204;-81
2024/03/23 03:45:57;;;;;;;8.00;7.60;;;13.50;20.60;;;;;;4926073;29;20480;-80
2024/03/23 03:48:28;;;;;;;7.60;7.30;;;13.60;20.60;;;;;;4909629;29;20536;-81
2024/03/23 03:50:54;;;;;;;7.43;7.07;;;13.50;20.90;;;;;;4909116;29;20452;-81
2024/03/23 03:53:20;;;;;;;7.97;7.67;;;13.50;20.80;;;;;;4924542;29;20464;-81
2024/03/23 03:55:45;;;;;;;8.10;7.50;;;13.70;20.60;;;;;;4933237;29;20222;-81
2024/03/23 03:58:11;;;;;;;7.70;7.37;;;13.70;20.50;;;;;;4944802;29;20482;-81
2024/03/23 04:00:36;;;;;;;7.57;7.20;;;13.70;20.50;;;;;;4932420;29;20235;-81
2024/03/23 04:03:02;;;;;;;8.37;7.97;;;13.70;20.50;;;;;;4926190;29;20188;-81
2024/03/23 04:05:38;;;;;;;8.00;7.60;;;13.70;20.60;;;;;;4925363;29;20650;-81
2024/03/23 04:08:05;;;;;;;8.70;8.30;;;13.60;20.80;;;;;;4934669;29;20180;-81
2024/03/23 04:10:35;;;;;;;7.80;7.40;;;13.50;21.20;;;;;;4921471;29;20468;-81
2024/03/23 04:13:01;;;;;;;8.50;8.00;;;13.50;21.40;;;;;;4920601;29;20460;-81
2024/03/23 04:15:26;;;;;;;8.47;8.07;;;13.40;21.50;;;;;;4926431;29;20432;-81
2024/03/23 04:17:52;;;;;;;9.37;8.67;;;13.40;21.60;;;;;;4959741;29;20411;-80
2024/03/23 04:20:18;;;;;;;7.77;7.37;;;13.30;21.70;;;;;;4945072;29;20238;-81
2024/03/23 04:22:43;;;;;;;7.97;7.67;;;13.30;21.90;;;;;;4942116;29;20423;-81
2024/03/23 04:25:10;;;;;;;8.47;8.07;;;13.30;22.00;;;;;;4914469;29;20189;-81
2024/03/23 04:27:38;;;;;;;7.83;7.50;;;13.30;22.10;;;;;;4925122;29;20177;-80
2024/03/23 04:30:09;;;;;;;7.77;7.47;;;13.30;22.30;;;;;;4925461;29;20440;-80
2024/03/23 04:32:35;;;;;;;8.63;8.20;;;13.50;22.10;;;;;;4927517;29;20471;-81
2024/03/23 04:35:10;;;;;;;7.87;7.50;;;13.70;21.60;;;;;;4909160;29;20428;-81
2024/03/23 04:37:37;;;;;;;8.23;7.83;;;13.90;21.20;;;;;;4924282;29;20177;-81
2024/03/23 04:40:05;;;;;;;8.40;8.00;;;14.00;21.10;;;;;;4924149;29;20542;-81
2024/03/23 04:42:31;;;;;;;8.67;8.23;;;14.00;21.60;;;;;;4944390;29;20431;-80
2024/03/23 04:44:57;;;;;;;9.37;8.80;;;14.00;22.80;;;;;;4926269;29;20432;-81
2024/03/23 04:47:25;;;;;;;9.70;9.10;;;14.00;24.00;;;;;;4928645;29;20686;-80
2024/03/23 04:49:51;;;;;;;9.30;8.80;;;13.90;24.80;;;;;;4932258;29;20219;-81
2024/03/23 04:52:17;;;;;;;9.97;9.33;;;13.90;25.80;;;;;;4929383;29;20472;-81
2024/03/23 04:54:43;;;;;;;10.13;9.60;;;13.90;25.80;;;;;;4913238;29;20244;-81
2024/03/23 04:57:09;;;;;;;10.53;10.03;;;13.80;26.00;;;;;;4946701;29;20424;-81
2024/03/23 04:59:34;;;;;;;11.30;10.70;;;13.80;26.80;;;;;;4949301;29;20483;-81
2024/03/23 05:02:03;;;;;;;10.97;10.27;;;13.80;27.30;;;;;;4948059;29;20208;-82
2024/03/23 05:04:29;;;;;;;11.17;10.60;;;13.70;28.30;;;;;;4947326;29;20428;-80
2024/03/23 05:07:01;;;;;;;11.73;10.93;;;13.60;29.40;;;;;;4925744;29;20495;-81
2024/03/23 05:09:29;;;;;;;12.73;11.93;;;13.40;30.20;;;;;;4939401;29;20302;-80
2024/03/23 05:11:57;;;;;;;14.63;13.67;;;13.30;32.00;;;;;;4921319;23;20505;-81
2024/03/23 05:14:23;;;;;;;14.17;13.23;;;13.00;33.40;;;;;;4875892;29;20441;-81
2024/03/23 05:17:17;;;;;;;14.00;13.10;;;12.80;34.80;;;;;;4884219;29;20456;-82
2024/03/23 05:19:44;;;;;;;16.03;14.73;;;12.70;35.50;;;;;;4893681;29;20746;-81
2024/03/23 05:22:10;;;;;;;16.87;15.70;;;12.60;36.20;;;;;;4895855;29;20777;-82
2024/03/23 05:24:37;;;;;;;17.70;16.40;;;12.70;36.30;;;;;;4881939;29;20795;-82
2024/03/23 05:27:03;;;;;;;17.00;15.97;;;12.60;35.60;;;;;;4880222;29;20443;-81
2024/03/23 05:29:29;;;;;;;18.10;17.00;;;12.60;34.80;;;;;;4895927;29;20197;-81
2024/03/23 05:31:56;;;;;;;18.20;17.10;;;12.70;33.90;;;;;;4888037;29;20523;-80
2024/03/23 05:34:22;;;;;;;19.50;18.30;;;12.50;35.20;;;;;;4880973;29;20458;-81
2024/03/23 05:36:49;;;;;;;19.10;17.77;;;12.40;36.10;;;;;;4894928;29;20502;-80
2024/03/23 05:39:16;;;;;;;18.83;17.63;;;12.40;36.60;;;;;;4900254;29;20196;-81
2024/03/23 05:41:42;;;;;;;18.50;17.30;;;12.30;36.80;;;;;;4902283;29;20457;-81
2024/03/23 05:44:10;;;;;;;17.77;16.67;;;12.50;35.90;;;;;;4904834;29;20453;-80
2024/03/23 05:46:36;;;;;;;18.27;17.07;;;12.30;36.00;;;;;;4874592;29;20194;-80
2024/03/23 05:49:02;;;;;;;17.07;15.97;;;12.30;36.40;;;;;;4894323;29;20490;-81
2024/03/23 05:51:28;;;;;;;19.67;18.23;;;12.30;35.50;;;;;;4889255;29;20210;-81
2024/03/23 05:53:53;;;;;;;16.77;15.80;;;12.20;35.80;;;;;;4888343;29;20922;-80
2024/03/23 05:56:20;;;;;;;17.20;15.90;;;12.10;36.40;;;;;;4882833;29;20572;-80
2024/03/23 05:59:03;;;;;;;14.60;13.60;;;11.90;35.40;;;;;;4884773;29;20685;-80
2024/03/23 06:01:28;;;;;;;13.20;12.40;;;11.80;34.30;;;;;;4886753;29;20450;-81
2024/03/23 06:03:54;;;;;;;12.50;11.70;;;11.90;33.90;;;;;;4886149;29;20449;-81
2024/03/23 06:06:20;;;;;;;10.53;10.03;;;11.70;34.50;;;;;;4897446;29;20193;-80
2024/03/23 06:08:45;;;;;;;11.70;11.10;;;11.70;33.80;;;;;;4899525;29;20197;-80
2024/03/23 06:11:11;;;;;;;12.63;12.03;;;11.60;33.40;;;;;;4897276;29;20221;-79
2024/03/23 06:13:37;;;;;;;12.07;11.37;;;11.50;33.40;;;;;;4893577;29;20212;-80
2024/03/23 06:16:02;;;;;;;10.97;10.43;;;11.60;32.90;;;;;;4875458;29;20182;-80
2024/03/23 06:18:28;;;;;;;10.67;10.17;;;11.50;34.70;;;;;;4878405;29;20186;-79
2024/03/23 06:20:54;;;;;;;11.00;10.40;;;11.30;33.20;;;;;;4884740;29;20205;-80
2024/03/23 06:23:20;;;;;;;9.67;9.17;;;11.40;32.70;;;;;;4897711;29;20196;-81
2024/03/23 06:25:46;;;;;;;8.77;8.37;;;11.30;33.30;;;;;;4898115;29;20193;-79
2024/03/23 06:28:11;;;;;;;9.20;8.80;;;11.20;31.40;;;;;;4892050;29;20502;-80
2024/03/23 06:30:37;;;;;;;8.13;7.83;;;11.20;32.50;;;;;;4899728;29;20471;-79
2024/03/23 06:33:03;;;;;;;8.23;7.83;;;11.20;31.00;;;;;;4896380;29;20288;-79
2024/03/23 06:35:28;;;;;;;7.70;7.40;;;11.10;30.80;;;;;;4883333;29;20185;-80
2024/03/23 06:37:54;;;;;;;7.93;7.53;;;11.10;31.40;;;;;;4899247;29;20190;-80
2024/03/23 06:40:19;;;;;;;7.17;6.97;;;11.10;31.40;;;;;;4881699;29;20249;-81
2024/03/23 06:42:45;;;;;;;7.03;6.43;;;11.20;30.00;;;;;;4881480;29;20280;-80
2024/03/23 06:45:10;;;;;;;7.30;7.10;;;11.20;31.20;;;;;;4886262;29;20198;-81
2024/03/23 06:47:36;;;;;;;7.30;7.10;;;11.10;30.50;;;;;;4881062;29;20196;-81
2024/03/23 06:50:03;;;;;;;6.83;6.63;;;11.10;31.00;;;;;;4882892;29;20218;-80
2024/03/23 06:52:29;;;;;;;6.53;6.33;;;11.00;30.20;;;;;;4879793;29;20216;-80
2024/03/23 06:54:55;;;;;;;6.17;5.97;;;11.00;29.70;;;;;;4885552;29;20441;-82
2024/03/23 06:57:21;;;;;;;6.67;6.47;;;10.90;30.20;;;;;;4878894;29;21139;-81
2024/03/23 06:59:47;;;;;;;6.30;6.10;;;10.90;29.90;;;;;;4881438;29;20535;-82
2024/03/23 07:02:13;;;;;;;6.37;6.17;;;10.80;30.80;;;;;;4880622;29;20441;-81
2024/03/23 07:04:41;;;;;;;6.33;6.13;;;10.70;30.60;;;;;;4866662;29;20178;-81
2024/03/23 07:07:08;;;;;;;6.70;6.50;;;10.60;30.60;;;;;;4865926;29;20182;-81
2024/03/23 07:09:33;;;;;;;7.03;6.83;;;10.70;30.80;;;;;;4863229;29;20423;-80
2024/03/23 07:11:59;;;;;;;6.67;6.47;;;10.60;30.00;;;;;;4892373;29;20473;-82
2024/03/23 07:14:25;;;;;;;6.23;6.03;;;10.80;30.00;;;;;;4897086;29;20236;-81
2024/03/23 07:16:51;;;;;;;6.17;5.93;;;11.10;29.50;;;;;;4900330;29;20481;-80
2024/03/23 07:19:19;;;;;;;6.87;6.67;;;11.10;28.30;;;;;;4902339;29;20220;-80
2024/03/23 07:21:45;;;;;;;6.17;5.97;;;11.00;28.60;;;;;;4895418;29;20444;-82
2024/03/23 07:24:11;;;;;;;6.57;6.40;;;11.00;28.40;;;;;;4885829;29;20427;-81
2024/03/23 07:26:39;;;;;;;6.20;6.00;;;11.10;28.70;;;;;;4884182;29;20427;-82
2024/03/23 07:29:06;;;;;;;5.70;5.60;;;10.80;29.90;;;;;;4892580;29;20446;-81
2024/03/23 07:31:31;;;;;;;6.37;6.20;;;10.70;29.80;;;;;;4877226;29;20966;-81
2024/03/23 07:33:57;;;;;;;6.10;5.90;;;10.80;29.30;;;;;;4877380;29;20830;-82
2024/03/23 07:36:23;;;;;;;6.67;6.23;;;10.70;31.20;;;;;;4879143;29;20260;-81
2024/03/23 07:38:49;;;;;;;6.20;6.00;;;10.60;30.00;;;;;;4879808;29;20658;-81
2024/03/23 07:41:19;;;;;;;6.10;5.90;;;10.50;30.10;;;;;;4879904;29;20296;-81
2024/03/23 07:43:46;;;;;;;6.53;6.33;;;10.60;30.00;;;;;;4884941;29;20444;-81
2024/03/23 07:46:12;;;;;;;6.57;6.27;;;10.80;28.70;;;;;;4889780;29;20772;-81
2024/03/23 07:48:38;;;;;;;6.93;6.73;;;10.90;28.90;;;;;;4879164;29;20943;-81
2024/03/23 07:51:16;;;;;;;6.40;6.20;;;11.00;29.40;;;;;;4882320;29;20532;-81
2024/03/23 07:53:43;;;;;;;6.47;6.27;;;11.00;29.30;;;;;;4887952;29;20472;-81
2024/03/23 07:56:10;;;;;;;6.23;5.73;;;10.80;32.20;;;;;;4900169;29;20421;-81
2024/03/23 07:58:36;;;;;;;5.90;5.77;;;10.80;32.20;;;;;;4898070;29;20509;-80
2024/03/23 08:01:10;;;;;;;6.27;6.07;;;10.90;29.70;;;;;;4883343;29;20485;-82
2024/03/23 08:03:36;;;;;;;7.20;6.90;;;10.70;31.10;;;;;;4883194;29;20426;-81
2024/03/23 08:06:14;;;;;;;5.90;5.70;;;10.40;32.80;;;;;;4882394;29;20426;-80
2024/03/23 08:08:45;;;;;;;5.80;5.70;;;10.20;35.10;;;;;;4882810;29;20452;-80
2024/03/23 08:11:11;;;;;;;6.00;5.80;;;10.40;31.80;;;;;;4883575;29;20506;-79
2024/03/23 08:13:39;;;;;;;6.80;6.60;;;10.60;32.10;;;;;;4884127;29;20467;-80
2024/03/23 08:16:05;;;;;;;7.20;6.83;;;10.50;32.00;;;;;;4884605;29;20465;-80
2024/03/23 08:18:31;;;;;;;6.73;6.53;;;10.40;31.80;;;;;;4885131;29;20430;-80
2024/03/23 08:21:04;;;;;;;7.33;7.13;;;10.20;32.80;;;;;;4901334;29;20539;-81
2024/03/23 08:23:36;;;;;;;6.40;6.20;;;10.10;33.10;;;;;;4900658;29;20189;-82
2024/03/23 08:26:03;;;;;;;6.10;5.90;;;10.20;32.70;;;;;;4884696;29;20438;-81
2024/03/23 08:28:29;;;;;;;6.00;5.80;;;10.20;32.50;;;;;;4872135;29;20458;-81
2024/03/23 08:31:00;;;;;;;6.30;6.10;;;10.20;33.60;;;;;;4883731;29;20830;-82
2024/03/23 08:33:39;;;;;;;6.73;6.53;;;10.10;33.20;;;;;;4883483;29;20474;-81
2024/03/23 08:36:08;;;;;;;6.00;5.80;;;10.20;34.00;;;;;;4884012;29;20437;-80
2024/03/23 08:38:34;;;;;;;6.83;6.63;;;10.10;33.90;;;;;;4886269;29;20414;-79
2024/03/23 08:41:03;;;;;;;6.97;6.77;;;9.90;34.80;;;;;;4882314;29;20470;-81
2024/03/23 08:43:35;;;;;;;6.47;6.27;;;10.10;33.50;;;;;;4883916;29;20440;-80
2024/03/23 08:46:12;;;;;;;6.50;6.23;;;10.30;32.30;;;;;;4900575;29;20533;-80
2024/03/23 08:48:46;;;;;;;5.63;5.43;;;10.30;32.40;;;;;;4900022;29;20448;-80
2024/03/23 08:51:23;;;;;;;6.60;6.40;;;10.50;32.30;;;;;;4900173;29;20468;-82
2024/03/23 08:53:48;;;;;;;7.00;6.70;;;10.70;31.10;;;;;;4887819;29;20558;-82
2024/03/23 08:56:21;;;;;;;6.57;6.37;;;10.70;28.70;;;;;;4882862;29;20845;-82
2024/03/23 08:58:47;;;;;;;15.97;14.67;;;10.70;29.50;;;;;;4877828;29;20442;-80
2024/03/23 09:01:26;;;;;;;7.13;6.93;;;10.80;29.20;;;;;;4868120;29;20450;-80
2024/03/23 09:03:53;;;;;;;7.30;7.00;;;10.70;28.10;;;;;;4883660;29;20441;-80
2024/03/23 09:06:18;;;;;;;8.20;7.80;;;10.70;27.60;;;;;;4852125;29;20439;-80
2024/03/23 09:08:44;;;;;;;7.77;7.57;;;10.50;28.00;;;;;;4884759;29;20438;-80
2024/03/23 09:11:11;;;;;;;8.33;8.03;;;10.60;28.20;;;;;;4895954;29;20229;-80
2024/03/23 09:13:37;;;;;;;7.80;7.50;;;10.80;27.50;;;;;;4892421;29;20596;-80
2024/03/23 09:16:05;;;;;;;8.33;7.83;;;10.90;26.80;;;;;;4899494;29;20477;-80
2024/03/23 09:18:35;;;;;;;9.20;8.40;;;11.00;27.00;;;;;;4898792;29;20509;-80
2024/03/23 09:21:13;;;;;;;8.27;7.97;;;10.90;25.80;;;;;;4882581;29;20442;-80
2024/03/23 09:23:43;;;;;;;8.17;7.77;;;10.90;25.90;;;;;;4899751;29;20425;-80
2024/03/23 09:26:08;;;;;;;8.50;8.00;;;10.90;22.60;;;;;;4898287;29;20915;-80
2024/03/23 09:28:48;;;;;;;8.20;7.70;;;10.80;22.30;;;;;;4896516;29;20425;-81
2024/03/23 09:31:15;;;;;;;8.57;8.17;;;11.00;21.80;;;;;;4879691;29;20209;-81
2024/03/23 09:33:41;;;;;;;10.00;9.20;;;11.10;21.40;;;;;;4881074;29;20466;-81
2024/03/23 09:36:07;;;;;;;9.57;8.97;;;10.90;20.80;;;;;;4876634;29;20491;-79
2024/03/23 09:38:33;;;;;;;9.30;8.70;;;10.80;21.80;;;;;;4880500;29;20414;-79
2024/03/23 09:40:59;;;;;;;10.53;9.53;;;10.80;21.00;;;;;;4881962;29;20453;-80
2024/03/23 09:43:25;;;;;;;9.50;9.00;;;10.80;19.50;;;;;;4881639;29;20422;-79
2024/03/23 09:45:51;;;;;;;8.73;8.20;;;11.00;18.80;;;;;;4893847;29;20677;-80
2024/03/23 09:48:17;;;;;;;9.23;8.67;;;11.20;18.60;;;;;;4898181;29;20185;-80
2024/03/23 09:50:44;;;;;;;8.87;8.23;;;11.10;19.00;;;;;;4881448;29;20445;-80
2024/03/23 09:53:11;;;;;;;8.77;8.27;;;11.00;18.60;;;;;;4880774;29;20293;-80
2024/03/23 09:55:38;;;;;;;8.60;7.87;;;11.00;17.80;;;;;;4864101;29;20563;-79
2024/03/23 09:58:08;;;;;;;8.67;8.17;;;10.80;17.90;;;;;;4864080;29;20418;-79
2024/03/23 10:00:34;;;;;;;8.30;7.80;;;10.90;16.90;;;;;;4863413;29;20450;-80
2024/03/23 10:03:04;;;;;;;8.80;8.20;;;10.90;15.70;;;;;;4879756;29;20423;-80
2024/03/23 10:05:36;;;;;;;9.90;9.30;;;10.80;15.70;;;;;;4866660;29;20431;-81
2024/03/23 10:08:19;;;;;;;10.80;9.93;;;10.80;14.60;;;;;;4893521;29;20903;-80
2024/03/23 10:10:45;;;;;;;10.37;9.70;;;11.00;13.80;;;;;;4891129;29;20497;-80
2024/03/23 10:13:23;;;;;;;9.97;9.17;;;11.10;15.30;;;;;;4898463;29;20473;-80
2024/03/23 10:15:55;;;;;;;9.00;8.50;;;11.00;15.60;;;;;;4899700;29;20418;-80
2024/03/23 10:18:21;;;;;;;10.20;9.20;;;10.90;15.60;;;;;;4884200;29;20434;-80
2024/03/23 10:21:05;;;;;;;10.70;9.87;;;10.80;17.40;;;;;;4880544;29;20955;-79
2024/03/23 10:23:35;;;;;;;9.77;9.07;;;10.60;15.60;;;;;;4881072;29;20829;-79
2024/03/23 10:26:20;;;;;;;11.00;10.10;;;10.60;16.50;;;;;;4880435;29;20474;-80
2024/03/23 10:29:12;;;;;;;9.40;8.67;;;10.50;16.90;;;;;;4879809;29;20947;-79
2024/03/23 10:31:41;;;;;;;8.80;8.20;;;10.40;16.10;;;;;;4878582;29;20838;-80
2024/03/23 10:34:07;;;;;;;8.90;8.30;;;10.50;18.00;;;;;;4894953;29;20426;-80
2024/03/23 10:36:35;;;;;;;9.30;8.70;;;10.60;16.90;;;;;;4901284;29;20434;-80
2024/03/23 10:39:01;;;;;;;10.10;8.47;;;10.50;16.60;;;;;;4900385;29;20812;-80
2024/03/23 10:41:28;;;;;;;9.90;9.20;;;10.60;16.00;;;;;;4897774;29;20536;-80
2024/03/23 10:43:56;;;;;;;9.10;8.27;;;10.50;15.30;;;;;;4899080;29;20692;-81
2024/03/23 10:46:21;;;;;;;9.30;8.47;;;10.50;15.20;;;;;;4899522;29;20512;-80
2024/03/23 10:48:47;;;;;;;10.20;9.20;;;10.70;16.10;;;;;;4895577;29;20916;-80
2024/03/23 10:51:14;;;;;;;9.80;8.87;;;10.70;17.30;;;;;;4883294;29;20202;-81
2024/03/23 10:53:40;;;;;;;8.10;7.70;;;10.90;16.90;;;;;;4878715;29;20691;-80
2024/03/23 10:56:07;;;;;;;8.47;7.97;;;11.00;17.70;;;;;;4879295;29;20437;-81
2024/03/23 10:58:44;;;;;;;9.70;8.80;;;10.90;18.80;;;;;;4879877;29;20411;-80
2024/03/23 11:01:13;;;;;;;8.90;8.30;;;10.80;19.90;;;;;;4864122;29;20474;-81
2024/03/23 11:03:40;;;;;;;9.50;8.80;;;10.50;23.50;;;;;;4880090;29;20426;-80
2024/03/23 11:06:06;;;;;;;8.30;7.90;;;9.80;25.80;;;;;;4879795;29;20423;-80
2024/03/23 11:08:39;;;;;;;8.10;7.70;;;9.50;28.00;;;;;;4863027;29;20437;-80
2024/03/23 11:12:07;;;;;;;;;;;;;;;;;;;;;
2024/03/23 11:22:09;;;;;;;7.97;7.37;;;9.20;29.80;;;;;;5029874;23;20502;-82
2024/03/23 11:25:17;;;;;;;8.07;7.67;;;9.10;31.70;;;;;;4907270;29;20523;-83
2024/03/23 11:27:54;;;;;;;8.70;8.30;;;9.30;33.10;;;;;;4927478;29;20558;-82
2024/03/23 11:31:01;;;;;;;8.53;8.03;;;9.10;34.80;;;;;;4903053;29;20440;-81
2024/03/23 11:37:20;;;;;;;;;;;;;;;;;;;;;
2024/03/23 11:39:49;;;;;;;7.60;7.20;;;9.10;31.70;;;;;;4921937;29;20524;-81
2024/03/23 11:42:22;;;;;;;6.87;6.47;;;9.20;33.80;;;;;;4903621;29;20544;-81
2024/03/23 11:48:23;;;;;;;7.90;7.37;;;9.50;29.00;;;;;;4933139;29;20449;-83
2024/03/23 11:51:03;;;;;;;6.80;6.30;;;9.70;28.40;;;;;;4901225;29;20551;-80
2024/03/23 11:54:06;;;;;;;6.83;6.43;;;9.90;28.90;;;;;;4896702;29;20496;-81
2024/03/23 11:57:11;;;;;;;7.40;6.80;;;10.10;24.80;;;;;;4907754;29;20425;-81
2024/03/23 12:11:16;;;;;;;;;;;;;;;;;;;;;
2024/03/23 12:14:00;;;;;;;7.33;6.83;;;10.00;21.20;;;;;;4771026;30;20516;-81
2024/03/23 12:16:45;;;;;;;7.37;6.93;;;10.00;19.50;;;;;;4774609;29;20432;-78
2024/03/23 12:19:22;;;;;;;6.70;6.10;;;10.10;20.10;;;;;;4850525;29;20440;-80
2024/03/23 12:25:42;;;;;;;7.60;7.10;;;10.30;18.10;;;;;;4916727;29;20439;-82
2024/03/23 12:31:53;;;;;;;7.67;7.20;;;10.30;16.50;;;;;;4913169;23;21131;-82
2024/03/23 12:34:23;;;;;;;7.53;7.00;;;10.40;18.80;;;;;;4919846;29;20455;-81
2024/03/23 13:13:54;;;;;;;9.60;7.37;;;10.90;15.70;;;;;;4926866;29;20492;-81
2024/03/23 13:16:20;;;;;;;7.83;7.00;;;11.10;15.90;;;;;;4930445;29;20433;-81
2024/03/23 13:18:45;;;;;;;7.67;6.97;;;11.10;15.70;;;;;;4939749;29;20468;-82
2024/03/23 13:21:11;;;;;;;7.63;7.03;;;11.10;15.70;;;;;;4933284;29;20267;-81
2024/03/23 13:23:37;;;;;;;8.30;7.60;;;11.20;14.00;;;;;;4932603;29;20192;-81
2024/03/23 13:26:03;;;;;;;7.13;6.53;;;11.30;14.50;;;;;;4949873;29;20192;-81
2024/03/23 13:28:29;;;;;;;7.07;6.37;;;11.30;13.80;;;;;;4956169;29;20503;-80
2024/03/23 13:30:57;;;;;;;6.90;6.23;;;11.40;12.50;;;;;;4920312;29;20219;-79
2024/03/23 13:33:22;;;;;;;7.17;6.67;;;11.20;12.20;;;;;;4922253;29;20295;-79
2024/03/23 13:35:57;;;;;;;7.13;6.53;;;11.20;12.60;;;;;;4924621;29;20493;-79
2024/03/23 13:38:23;;;;;;;6.93;6.23;;;11.30;12.20;;;;;;4923048;29;20188;-79
2024/03/23 13:40:57;;;;;;;5.90;5.50;;;11.20;11.80;;;;;;4939712;29;20465;-79
2024/03/23 13:43:23;;;;;;;5.83;5.30;;;11.00;9.60;;;;;;4926459;29;20433;-79
2024/03/23 13:45:54;;;;;;;6.23;5.57;;;11.10;10.20;;;;;;4938316;29;20441;-78
2024/03/23 13:48:21;;;;;;;6.00;5.60;;;11.30;9.60;;;;;;4921285;29;20441;-79
2024/03/23 13:50:50;;;;;;;5.87;5.47;;;11.30;8.80;;;;;;4926894;29;20525;-79
2024/03/23 13:53:15;;;;;;;6.93;6.43;;;11.30;8.60;;;;;;4926052;29;20465;-79
2024/03/23 13:55:50;;;;;;;5.90;5.43;;;11.50;8.70;;;;;;4941384;29;20535;-79
2024/03/23 13:58:16;;;;;;;6.83;6.23;;;11.60;9.10;;;;;;4910056;29;20210;-79
2024/03/23 15:47:05;;;;;;;7.03;6.73;;;9.70;22.70;;;;;;4776885;30;20890;-81
2024/03/23 17:14:37;;;;;;;6.13;5.93;;;8.40;27.50;;;;;;4917249;29;20483;-81
2024/03/23 17:17:03;;;;;;;6.13;5.83;;;8.50;27.70;;;;;;4920533;29;20444;-80
2024/03/23 17:19:35;;;;;;;6.87;6.47;;;8.50;27.50;;;;;;4903681;29;20192;-81